Time;durP1;ratioP1;P1;durP2;ratioP2;P2;SDS_P1;SDS_P2;PMS_P1;PMS_P2;Temp;Humidity;BMP_temperature;BMP_pressure;BME280_temperature;BME280_humidity;BME280_pressure;Samples;Min_cycle;Max_cycle;Signal;HPM_P1;HPM_P2
2024/04/22 00:00:42;;;;;;;;;;;;;;;0.13;100.00;100081.09;5316228;26;20250;-59
2024/04/22 00:03:09;;;;;;;;;;;;;;;0.01;100.00;100084.97;5315683;26;19941;-59
2024/04/22 00:05:42;;;;;;;;;;;;;;;0.06;100.00;100082.69;5319914;26;20518;-59
2024/04/22 00:08:09;;;;;;;;;;;;;;;0.08;100.00;100078.09;5313735;26;19941;-59
2024/04/22 00:10:39;;;;;;;;;;;;;;;0.28;100.00;100070.81;5312078;26;19975;-59
2024/04/22 00:13:06;;;;;;;;;;;;;;;0.52;100.00;100072.75;5318995;26;19994;-59
2024/04/22 00:15:36;;;;;;;;;;;;;;;0.43;100.00;100069.25;5321299;26;20529;-59
2024/04/22 00:18:03;;;;;;;;;;;;;;;0.39;100.00;100072.34;5325320;26;20334;-59
2024/04/22 00:20:33;;;;;;;;;;;;;;;0.03;100.00;100074.28;5319729;26;19926;-59
2024/04/22 00:23:03;;;;;;;;;;;;;;;-0.07;100.00;100075.19;5350568;26;19926;-59
2024/04/22 00:25:33;;;;;;;;;;;;;;;-0.23;100.00;100065.31;5321471;26;19937;-59
2024/04/22 00:28:00;;;;;;;;;;;;;;;-0.39;100.00;100070.47;5321807;26;20341;-59
2024/04/22 00:30:30;;;;;;;;;;;;;;;-0.31;100.00;100069.69;5319391;26;19926;-59
2024/04/22 00:32:57;;;;;;;;;;;;;;;-0.36;100.00;100062.25;5323191;26;19933;-59
2024/04/22 00:35:27;;;;;;;;;;;;;;;-0.11;100.00;100065.09;5313103;26;19927;-59
2024/04/22 00:37:54;;;;;;;;;;;;;;;-0.19;100.00;100062.41;5317462;26;19934;-59
2024/04/22 00:40:27;;;;;;;;;;;;;;;-0.15;100.00;100064.59;5317673;26;19926;-59
2024/04/22 00:42:54;;;;;;;;;;;;;;;-0.18;100.00;100064.03;5322258;26;19927;-59
2024/04/22 00:45:24;;;;;;;;;;;;;;;0.16;100.00;100059.69;5326199;26;19934;-59
2024/04/22 00:47:51;;;;;;;;;;;;;;;0.38;100.00;100060.16;5321808;26;20357;-59
2024/04/22 00:50:21;;;;;;;;;;;;;;;0.26;100.00;100054.31;5349979;26;19925;-59
2024/04/22 00:52:48;;;;;;;;;;;;;;;-0.03;100.00;100057.25;5317436;26;19942;-59
2024/04/22 00:55:18;;;;;;;;;;;;;;;0.17;100.00;100053.41;5320895;26;19938;-59
2024/04/22 00:57:47;;;;;;;;;;;;;;;-0.02;100.00;100066.81;5316193;26;19954;-59
2024/04/22 01:00:17;;;;;;;;;;;;;;;-0.11;100.00;100073.81;5322517;26;19940;-59
2024/04/22 01:02:45;;;;;;;;;;;;;;;-0.23;100.00;100067.13;5310989;26;22226;-59
2024/04/22 01:05:14;;;;;;;;;;;;;;;-0.73;100.00;100063.22;5322427;26;19949;-59
2024/04/22 01:07:42;;;;;;;;;;;;;;;-0.49;100.00;100067.09;5317367;26;19934;-59
2024/04/22 01:10:12;;;;;;;;;;;;;;;-0.48;100.00;100069.53;5323197;26;19941;-59
2024/04/22 01:12:39;;;;;;;;;;;;;;;-0.68;100.00;100060.97;5321834;26;19944;-59
2024/04/22 01:15:11;;;;;;;;;;;;;;;-0.53;100.00;100055.19;5316314;26;21297;-59
2024/04/22 01:17:39;;;;;;;;;;;;;;;-0.71;100.00;100057.81;5325164;26;21385;-59
2024/04/22 01:20:09;;;;;;;;;;;;;;;-0.75;100.00;100051.19;5319934;26;20471;-59
2024/04/22 01:22:39;;;;;;;;;;;;;;;-0.55;100.00;100046.59;5342653;26;19941;-59
2024/04/22 01:25:09;;;;;;;;;;;;;;;-0.42;100.00;100047.06;5317430;26;19926;-60
2024/04/22 01:27:36;;;;;;;;;;;;;;;-0.50;100.00;100046.97;5320297;26;19926;-59
2024/04/22 01:30:07;;;;;;;;;;;;;;;-0.36;100.00;100046.44;5321170;26;20371;-59
2024/04/22 01:32:34;;;;;;;;;;;;;;;-0.29;100.00;100052.75;5341612;26;19933;-59
2024/04/22 01:35:05;;;;;;;;;;;;;;;-0.47;100.00;100049.31;5310799;26;19954;-59
2024/04/22 01:37:32;;;;;;;;;;;;;;;-0.47;100.00;100051.97;5336929;26;20300;-59
2024/04/22 01:40:05;;;;;;;;;;;;;;;-0.80;100.00;100049.00;5324462;26;19938;-59
2024/04/22 01:42:32;;;;;;;;;;;;;;;-0.91;100.00;100046.56;5323391;26;19926;-58
2024/04/22 01:45:02;;;;;;;;;;;;;;;-0.82;100.00;100040.44;5314284;26;19926;-59
2024/04/22 01:47:29;;;;;;;;;;;;;;;-0.87;100.00;100038.25;5312075;26;19957;-59
2024/04/22 01:49:59;;;;;;;;;;;;;;;-0.96;100.00;100044.38;5320168;26;20455;-59
2024/04/22 01:52:26;;;;;;;;;;;;;;;-0.88;100.00;100048.91;5323629;26;19926;-59
2024/04/22 01:54:56;;;;;;;;;;;;;;;-0.68;100.00;100053.06;5315022;26;19958;-59
2024/04/22 01:57:25;;;;;;;;;;;;;;;-1.00;100.00;100052.72;5321173;26;19926;-59
2024/04/22 01:59:55;;;;;;;;;;;;;;;-0.70;100.00;100047.13;5319273;26;19926;-58
2024/04/22 02:02:23;;;;;;;;;;;;;;;-0.17;100.00;100042.00;5325184;26;19977;-59
2024/04/22 02:04:52;;;;;;;;;;;;;;;-0.02;100.00;100045.72;5321921;26;19959;-59
2024/04/22 02:07:20;;;;;;;;;;;;;;;0.33;100.00;100041.34;5326906;26;20038;-59
2024/04/22 02:09:49;;;;;;;;;;;;;;;0.19;100.00;100040.09;5325416;26;19927;-59
2024/04/22 02:12:17;;;;;;;;;;;;;;;0.38;100.00;100033.78;5326207;26;19937;-59
2024/04/22 02:14:49;;;;;;;;;;;;;;;0.72;100.00;100035.56;5316617;26;19933;-59
2024/04/22 02:17:17;;;;;;;;;;;;;;;0.50;100.00;100043.09;5325148;26;19934;-59
2024/04/22 02:19:46;;;;;;;;;;;;;;;0.44;100.00;100033.16;5322233;26;20252;-59
2024/04/22 02:22:14;;;;;;;;;;;;;;;0.40;100.00;100037.91;5321839;26;19933;-58
2024/04/22 02:24:43;;;;;;;;;;;;;;;0.43;100.00;100034.97;5324727;26;19934;-58
2024/04/22 02:27:11;;;;;;;;;;;;;;;0.31;100.00;100035.38;5325445;26;19941;-59
2024/04/22 02:29:40;;;;;;;;;;;;;;;-0.07;100.00;100040.91;5322816;26;19926;-59
2024/04/22 02:32:10;;;;;;;;;;;;;;;-0.23;100.00;100038.97;5321550;26;19965;-59
2024/04/22 02:34:40;;;;;;;;;;;;;;;0.00;100.00;100030.59;5322520;26;20003;-58
2024/04/22 02:37:07;;;;;;;;;;;;;;;0.07;100.00;100036.06;5320421;26;19933;-58
2024/04/22 02:39:37;;;;;;;;;;;;;;;0.29;100.00;100034.72;5339901;26;19933;-58
2024/04/22 02:42:05;;;;;;;;;;;;;;;0.28;100.00;100028.63;5320794;26;19941;-58
2024/04/22 02:44:35;;;;;;;;;;;;;;;0.01;100.00;100032.25;5323293;26;19926;-58
2024/04/22 02:47:02;;;;;;;;;;;;;;;-0.32;100.00;100032.00;5317634;26;19927;-61
2024/04/22 02:49:35;;;;;;;;;;;;;;;-0.55;100.00;100034.28;5301112;26;19945;-58
2024/04/22 02:52:02;;;;;;;;;;;;;;;-0.70;100.00;100028.72;5319154;26;19990;-58
2024/04/22 02:54:35;;;;;;;;;;;;;;;-0.47;100.00;100023.00;5318938;26;19938;-58
2024/04/22 02:57:02;;;;;;;;;;;;;;;-0.17;100.00;100029.66;5321127;26;19937;-58
2024/04/22 02:59:32;;;;;;;;;;;;;;;0.16;100.00;100029.88;5322679;26;20004;-58
2024/04/22 03:01:59;;;;;;;;;;;;;;;0.29;100.00;100030.25;5319827;26;20323;-58
2024/04/22 03:04:29;;;;;;;;;;;;;;;0.14;100.00;100030.00;5318343;26;20855;-58
2024/04/22 03:07:00;;;;;;;;;;;;;;;0.10;100.00;100031.31;5317169;26;19927;-58
2024/04/22 03:09:34;;;;;;;;;;;;;;;0.17;100.00;100027.06;5318479;26;19933;-58
2024/04/22 03:12:01;;;;;;;;;;;;;;;0.42;100.00;100020.13;5349886;26;19934;-58
2024/04/22 03:14:31;;;;;;;;;;;;;;;0.12;100.00;100018.78;5325635;26;19926;-58
2024/04/22 03:16:59;;;;;;;;;;;;;;;0.00;100.00;100020.06;5319819;26;20285;-58
2024/04/22 03:19:28;;;;;;;;;;;;;;;-0.14;100.00;100018.78;5321290;26;19933;-58
2024/04/22 03:21:56;;;;;;;;;;;;;;;-0.19;100.00;100020.25;5324642;26;19926;-58
2024/04/22 03:24:28;;;;;;;;;;;;;;;-0.37;100.00;100013.19;5322822;26;19938;-58
2024/04/22 03:26:55;;;;;;;;;;;;;;;-0.50;100.00;100015.38;5325985;26;19937;-59
2024/04/22 03:29:25;;;;;;;;;;;;;;;-0.72;100.00;100009.59;5328850;26;19934;-58
2024/04/22 03:31:52;;;;;;;;;;;;;;;-0.70;100.00;100012.91;5324054;26;19950;-58
2024/04/22 03:34:22;;;;;;;;;;;;;;;-0.67;100.00;100007.34;5327427;26;19926;-58
2024/04/22 03:36:52;;;;;;;;;;;;;;;-0.64;100.00;100011.47;5318784;26;19949;-58
2024/04/22 03:39:22;;;;;;;;;;;;;;;-0.78;100.00;99999.66;5319782;26;19926;-58
2024/04/22 03:41:54;;;;;;;;;;;;;;;-0.69;100.00;99996.13;5324032;26;19926;-58
2024/04/22 03:44:24;;;;;;;;;;;;;;;-0.72;100.00;100003.50;5325389;26;19930;-58
2024/04/22 03:49:56;;;;;;;;;;;;;;;-0.84;100.00;100000.28;5323809;26;19932;-58
2024/04/22 03:52:26;;;;;;;;;;;;;;;-0.74;100.00;99998.38;5321915;26;19930;-58
2024/04/22 03:54:57;;;;;;;;;;;;;;;-0.73;100.00;100000.03;5318807;26;19933;-58
2024/04/22 03:57:29;;;;;;;;;;;;;;;-0.79;100.00;100003.28;5309546;26;20398;-58
2024/04/22 03:59:59;;;;;;;;;;;;;;;-0.78;100.00;99994.38;5328610;26;19974;-58
2024/04/22 04:02:26;;;;;;;;;;;;;;;-0.83;100.00;99994.00;5327079;26;20714;-58
2024/04/22 04:04:56;;;;;;;;;;;;;;;-0.87;100.00;99995.31;5319675;26;19926;-59
2024/04/22 04:07:24;;;;;;;;;;;;;;;-1.16;100.00;99998.94;5324264;26;19936;-58
2024/04/22 04:09:54;;;;;;;;;;;;;;;-1.25;100.00;99997.19;5321702;26;19960;-59
2024/04/22 04:12:21;;;;;;;;;;;;;;;-0.73;100.00;99993.94;5327461;26;19925;-59
2024/04/22 04:14:53;;;;;;;;;;;;;;;-0.33;100.00;99990.81;5325864;26;19938;-59
2024/04/22 04:17:22;;;;;;;;;;;;;;;-0.37;100.00;99992.13;5325558;26;19926;-59
2024/04/22 04:19:52;;;;;;;;;;;;;;;-0.49;100.00;99994.16;5324335;26;19926;-59
2024/04/22 04:22:19;;;;;;;;;;;;;;;-0.62;100.00;99995.50;5326623;26;20318;-59
2024/04/22 04:24:49;;;;;;;;;;;;;;;-0.88;100.00;99993.63;5326385;26;19958;-58
2024/04/22 04:27:16;;;;;;;;;;;;;;;-0.88;100.00;99996.28;5325775;26;20008;-59
2024/04/22 04:29:46;;;;;;;;;;;;;;;-0.70;100.00;99997.13;5326533;26;19946;-59
2024/04/22 04:32:16;;;;;;;;;;;;;;;-0.42;100.00;99994.38;5318568;26;20614;-59
2024/04/22 04:34:46;;;;;;;;;;;;;;;-0.54;100.00;100000.88;5326346;26;20515;-59
2024/04/22 04:37:13;;;;;;;;;;;;;;;-0.55;100.00;99999.19;5316574;26;19930;-59
2024/04/22 04:39:43;;;;;;;;;;;;;;;-0.54;100.00;99998.25;5318713;26;20363;-59
2024/04/22 04:42:10;;;;;;;;;;;;;;;0.08;100.00;99998.19;5318020;26;19926;-59
2024/04/22 04:44:40;;;;;;;;;;;;;;;0.30;100.00;99994.16;5326480;26;19926;-59
2024/04/22 04:47:07;;;;;;;;;;;;;;;0.31;100.00;99991.38;5324416;26;20459;-59
2024/04/22 04:49:40;;;;;;;;;;;;;;;0.36;100.00;99997.00;5327838;26;19926;-59
2024/04/22 04:52:07;;;;;;;;;;;;;;;0.40;100.00;100000.16;5322941;26;20428;-59
2024/04/22 04:54:37;;;;;;;;;;;;;;;0.42;100.00;100003.47;5321577;26;19945;-59
2024/04/22 04:57:04;;;;;;;;;;;;;;;0.47;100.00;100003.00;5320476;26;20362;-59
2024/04/22 04:59:34;;;;;;;;;;;;;;;0.26;100.00;100013.94;5323130;26;20414;-58
2024/04/22 05:02:01;;;;;;;;;;;;;;;0.21;100.00;100011.78;5318092;26;19935;-58
2024/04/22 05:04:31;;;;;;;;;;;;;;;0.12;100.00;100010.88;5311784;26;19934;-59
2024/04/22 05:07:01;;;;;;;;;;;;;;;-0.04;100.00;100018.69;5323399;26;19926;-59
2024/04/22 05:09:31;;;;;;;;;;;;;;;0.04;100.00;100018.75;5319414;26;20368;-59
2024/04/22 05:11:58;;;;;;;;;;;;;;;-0.47;100.00;100015.09;5320468;26;19941;-58
2024/04/22 05:14:27;;;;;;;;;;;;;;;-0.91;100.00;100013.19;5315651;26;19941;-58
2024/04/22 05:16:55;;;;;;;;;;;;;;;-0.43;100.00;100005.88;5320641;26;19926;-58
2024/04/22 05:19:24;;;;;;;;;;;;;;;-0.06;100.00;99999.56;5320833;26;20299;-59
2024/04/22 05:21:52;;;;;;;;;;;;;;;0.08;100.00;100004.28;5317437;26;19934;-59
2024/04/22 05:24:24;;;;;;;;;;;;;;;0.18;100.00;100007.63;5312626;26;19957;-59
2024/04/22 05:26:52;;;;;;;;;;;;;;;-0.11;100.00;100004.47;5312606;26;19926;-59
2024/04/22 05:29:22;;;;;;;;;;;;;;;-0.18;100.00;100011.34;5347384;26;19935;-59
2024/04/22 05:31:50;;;;;;;;;;;;;;;0.21;100.00;100012.59;5324424;26;20260;-59
2024/04/22 05:37:06;;;;;;;;;;;;;;;0.31;100.00;100011.66;5321283;26;20353;-59
2024/04/22 05:39:38;;;;;;;;;;;;;;;-0.23;100.00;100019.72;5322730;26;20254;-59
2024/04/22 05:42:06;;;;;;;;;;;;;;;0.31;100.00;100012.47;5315906;26;19940;-58
2024/04/22 05:44:36;;;;;;;;;;;;;;;0.66;100.00;100015.13;5323269;26;20111;-58
2024/04/22 05:47:06;;;;;;;;;;;;;;;1.04;100.00;100016.38;5324893;26;20009;-58
2024/04/22 05:49:36;;;;;;;;;;;;;;;1.17;100.00;100019.38;5318142;26;19944;-58
2024/04/22 05:52:06;;;;;;;;;;;;;;;1.16;100.00;100014.28;5320684;26;19926;-58
2024/04/22 05:54:39;;;;;;;;;;;;;;;1.61;100.00;100020.91;5316761;26;19926;-58
2024/04/22 05:57:06;;;;;;;;;;;;;;;1.86;100.00;100033.13;5322539;26;19934;-58
2024/04/22 05:59:36;;;;;;;;;;;;;;;1.55;100.00;100025.06;5318157;26;19926;-58
2024/04/22 06:02:03;;;;;;;;;;;;;;;1.79;100.00;100029.50;5318014;26;19926;-58
2024/04/22 06:04:33;;;;;;;;;;;;;;;2.18;100.00;100033.28;5326641;26;19926;-58
2024/04/22 06:07:00;;;;;;;;;;;;;;;2.39;99.97;100030.91;5320503;26;19933;-58
2024/04/22 06:09:30;;;;;;;;;;;;;;;2.60;96.88;100025.06;5326135;26;19926;-59
2024/04/22 06:12:00;;;;;;;;;;;;;;;2.25;95.28;100028.97;5323481;26;19973;-58
2024/04/22 06:14:30;;;;;;;;;;;;;;;2.47;94.13;100032.69;5324615;26;20264;-58
2024/04/22 06:16:58;;;;;;;;;;;;;;;2.65;97.06;100035.97;5323866;26;19933;-58
2024/04/22 06:19:27;;;;;;;;;;;;;;;2.54;96.65;100033.66;5323057;26;19926;-58
2024/04/22 06:21:55;;;;;;;;;;;;;;;2.19;94.86;100035.72;5321968;26;20278;-58
2024/04/22 06:24:24;;;;;;;;;;;;;;;2.53;94.49;100030.19;5327821;26;20589;-58
2024/04/22 06:26:52;;;;;;;;;;;;;;;2.25;94.66;100034.25;5322492;26;19936;-58
2024/04/22 06:29:24;;;;;;;;;;;;;;;2.92;92.82;100028.53;5324324;26;19961;-58
2024/04/22 06:31:51;;;;;;;;;;;;;;;2.71;91.27;100023.84;5318940;26;19933;-58
2024/04/22 06:34:22;;;;;;;;;;;;;;;2.49;92.41;100026.22;5311941;26;19926;-58
2024/04/22 06:36:49;;;;;;;;;;;;;;;2.24;93.54;100030.75;5324785;26;19925;-58
2024/04/22 06:39:20;;;;;;;;;;;;;;;2.59;94.68;100033.97;5327405;26;20004;-58
2024/04/22 06:41:48;;;;;;;;;;;;;;;2.84;92.02;100031.22;5325279;26;20357;-58
2024/04/22 06:44:17;;;;;;;;;;;;;;;2.80;94.29;100034.22;5327319;26;19926;-59
2024/04/22 06:46:50;;;;;;;;;;;;;;;2.79;92.22;100032.56;5322266;26;19995;-58
2024/04/22 06:49:17;;;;;;;;;;;;;;;2.68;93.68;100029.50;5327245;26;19940;-59
2024/04/22 06:51:47;;;;;;;;;;;;;;;2.87;92.85;100033.53;5328722;26;19932;-59
2024/04/22 06:54:14;;;;;;;;;;;;;;;4.10;87.08;100029.00;5322401;26;19933;-59
2024/04/22 06:56:44;;;;;;;;;;;;;;;4.96;79.85;100032.00;5325815;26;19977;-59
2024/04/22 06:59:11;;;;;;;;;;;;;;;5.81;74.14;100029.59;5320720;26;20245;-58
2024/04/22 07:01:41;;;;;;;;;;;;;;;6.20;71.60;100023.81;5320674;26;19933;-58
2024/04/22 07:04:11;;;;;;;;;;;;;;;7.51;67.46;100029.09;5315602;26;19946;-58
2024/04/22 07:06:41;;;;;;;;;;;;;;;6.55;70.77;100031.81;5319650;26;19936;-58
2024/04/22 07:09:09;;;;;;;;;;;;;;;5.75;73.16;100027.72;5320874;26;19925;-59
2024/04/22 07:11:39;;;;;;;;;;;;;;;4.50;81.06;100028.78;5325981;26;20475;-59
2024/04/22 07:14:08;;;;;;;;;;;;;;;3.71;88.05;100029.19;5319807;26;19926;-58
2024/04/22 07:16:38;;;;;;;;;;;;;;;3.33;91.27;100023.03;5326175;26;20253;-58
2024/04/22 07:19:06;;;;;;;;;;;;;;;3.62;93.45;100032.91;5325779;26;19961;-58
2024/04/22 07:21:38;;;;;;;;;;;;;;;3.43;93.60;100018.31;5326065;26;19926;-59
2024/04/22 07:24:06;;;;;;;;;;;;;;;3.54;95.11;100025.84;5324560;26;19932;-58
2024/04/22 07:26:36;;;;;;;;;;;;;;;2.90;96.01;100019.97;5326156;26;19934;-59
2024/04/22 07:29:04;;;;;;;;;;;;;;;3.12;99.05;100020.97;5321464;26;19933;-58
2024/04/22 07:31:34;;;;;;;;;;;;;;;3.28;98.34;100025.38;5324075;26;19940;-58
2024/04/22 07:34:02;;;;;;;;;;;;;;;3.50;97.65;100021.91;5317031;26;20466;-59
2024/04/22 07:36:34;;;;;;;;;;;;;;;3.46;96.74;100020.59;5325373;26;19978;-58
2024/04/22 07:39:04;;;;;;;;;;;;;;;3.36;98.46;100018.19;5323075;26;20007;-58
2024/04/22 07:41:34;;;;;;;;;;;;;;;3.59;96.43;100014.72;5284103;26;19926;-58
2024/04/22 07:44:02;;;;;;;;;;;;;;;4.00;96.04;100019.69;5325199;26;19933;-59
2024/04/22 07:46:32;;;;;;;;;;;;;;;4.50;91.00;100026.94;5323936;26;19981;-58
2024/04/22 07:48:59;;;;;;;;;;;;;;;4.35;91.68;100022.66;5326900;26;19929;-58
2024/04/22 07:51:29;;;;;;;;;;;;;;;4.07;91.19;100016.13;5321148;26;19926;-59
2024/04/22 07:53:58;;;;;;;;;;;;;;;3.83;93.48;100019.81;5324488;26;19926;-58
2024/04/22 07:56:31;;;;;;;;;;;;;;;3.58;93.29;100024.50;5323190;26;19957;-58
2024/04/22 07:58:58;;;;;;;;;;;;;;;3.50;96.74;100026.41;5322698;26;19926;-58
2024/04/22 08:01:28;;;;;;;;;;;;;;;3.31;96.92;100019.72;5326580;26;19926;-58
2024/04/22 08:03:56;;;;;;;;;;;;;;;3.31;97.95;100025.03;5324886;26;19933;-58
2024/04/22 08:06:27;;;;;;;;;;;;;;;3.51;97.43;100022.72;5352648;26;19933;-59
2024/04/22 08:08:54;;;;;;;;;;;;;;;3.43;97.00;100028.91;5324573;26;19926;-60
2024/04/22 08:11:23;;;;;;;;;;;;;;;3.64;97.83;100028.25;5333229;26;20156;-59
2024/04/22 08:13:54;;;;;;;;;;;;;;;3.46;97.84;100028.56;5326978;26;19926;-59
2024/04/22 08:16:23;;;;;;;;;;;;;;;3.75;97.81;100030.50;5316949;26;19925;-58
2024/04/22 08:18:51;;;;;;;;;;;;;;;3.90;92.89;100035.84;5326857;26;19926;-58
2024/04/22 08:21:20;;;;;;;;;;;;;;;3.84;92.86;100031.22;5320660;26;19934;-58
2024/04/22 08:23:47;;;;;;;;;;;;;;;4.91;92.53;100039.72;5325400;26;19938;-59
2024/04/22 08:26:17;;;;;;;;;;;;;;;5.15;84.46;100041.22;5325935;26;20360;-58
2024/04/22 08:28:45;;;;;;;;;;;;;;;6.14;80.08;100045.88;5327050;26;19995;-59
2024/04/22 08:31:17;;;;;;;;;;;;;;;6.56;77.08;100038.75;5324750;26;19926;-59
2024/04/22 08:33:44;;;;;;;;;;;;;;;6.36;74.08;100032.50;5320556;26;19937;-58
2024/04/22 08:36:15;;;;;;;;;;;;;;;6.44;73.20;100045.66;5312676;26;19933;-58
2024/04/22 08:38:43;;;;;;;;;;;;;;;7.83;68.62;100041.84;5325598;26;20657;-58
2024/04/22 08:41:15;;;;;;;;;;;;;;;8.54;70.64;100041.19;5323427;26;19981;-58
2024/04/22 08:43:44;;;;;;;;;;;;;;;8.30;68.41;100040.78;5325137;26;19934;-59
2024/04/22 08:46:13;;;;;;;;;;;;;;;7.57;69.33;100041.59;5318529;26;19937;-58
2024/04/22 08:48:43;;;;;;;;;;;;;;;8.42;63.71;100028.47;5321559;26;19933;-59
2024/04/22 08:51:13;;;;;;;;;;;;;;;8.43;67.45;100035.44;5322471;26;19926;-58
2024/04/22 08:53:40;;;;;;;;;;;;;;;9.23;61.62;100035.16;5354596;26;20268;-58
2024/04/22 08:56:13;;;;;;;;;;;;;;;9.50;59.42;100029.66;5320771;26;19946;-58
2024/04/22 08:58:40;;;;;;;;;;;;;;;9.91;62.59;100036.38;5325068;26;20221;-58
2024/04/22 09:01:10;;;;;;;;;;;;;;;10.18;56.47;100030.78;5321716;26;19927;-59
2024/04/22 09:03:37;;;;;;;;;;;;;;;10.44;57.41;100029.75;5320229;26;19926;-59
2024/04/22 09:06:10;;;;;;;;;;;;;;;10.85;55.25;100034.44;5313295;26;20579;-58
2024/04/22 09:08:40;;;;;;;;;;;;;;;10.04;55.32;100030.09;5323576;26;19933;-58
2024/04/22 09:11:10;;;;;;;;;;;;;;;9.12;57.23;100022.47;5323661;26;19926;-59
2024/04/22 09:13:37;;;;;;;;;;;;;;;8.92;57.06;100021.75;5326720;26;20381;-59
2024/04/22 09:16:08;;;;;;;;;;;;;;;8.95;59.61;100019.47;5325091;26;19937;-58
2024/04/22 09:18:36;;;;;;;;;;;;;;;9.68;56.86;100021.72;5326052;26;19937;-58
2024/04/22 09:21:06;;;;;;;;;;;;;;;10.27;58.68;100021.44;5319570;26;19925;-58
2024/04/22 09:23:36;;;;;;;;;;;;;;;9.16;59.91;100006.81;5328147;26;20349;-58
2024/04/22 09:26:07;;;;;;;;;;;;;;;10.04;56.00;100014.84;5321760;26;19926;-58
2024/04/22 09:28:34;;;;;;;;;;;;;;;11.00;55.84;100008.06;5325402;26;19938;-58
2024/04/22 09:31:04;;;;;;;;;;;;;;;10.76;54.97;100011.69;5321064;26;19926;-58
2024/04/22 09:33:32;;;;;;;;;;;;;;;12.00;52.73;100013.84;5312564;26;19926;-58
2024/04/22 09:36:02;;;;;;;;;;;;;;;11.11;50.86;100003.00;5320505;26;20659;-58
2024/04/22 09:38:32;;;;;;;;;;;;;;;8.98;54.91;100000.31;5323445;26;19926;-59
2024/04/22 09:41:06;;;;;;;;;;;;;;;9.96;57.16;100001.75;5318808;26;20008;-59
2024/04/22 09:43:35;;;;;;;;;;;;;;;11.99;48.46;100001.47;5323554;26;19941;-58
2024/04/22 09:46:05;;;;;;;;;;;;;;;12.13;45.78;99994.00;5322261;26;20561;-60
2024/04/22 09:48:32;;;;;;;;;;;;;;;13.30;47.43;99990.22;5327251;26;19949;-58
2024/04/22 09:51:02;;;;;;;;;;;;;;;12.19;46.67;99988.50;5319166;26;19926;-58
2024/04/22 09:53:30;;;;;;;;;;;;;;;10.90;49.94;99988.19;5320143;26;19948;-58
2024/04/22 09:56:03;;;;;;;;;;;;;;;10.13;52.69;99988.59;5314715;26;20248;-58
2024/04/22 09:58:33;;;;;;;;;;;;;;;10.16;50.74;99980.13;5318296;26;19926;-58
2024/04/22 10:01:03;;;;;;;;;;;;;;;9.61;52.33;99983.50;5313122;26;20261;-58
2024/04/22 10:03:30;;;;;;;;;;;;;;;9.32;52.97;99976.06;5322464;26;19933;-58
2024/04/22 10:06:00;;;;;;;;;;;;;;;9.36;54.38;99977.25;5323316;26;19937;-58
2024/04/22 10:08:29;;;;;;;;;;;;;;;9.38;52.76;99978.69;5326000;26;19933;-58
2024/04/22 10:11:06;;;;;;;;;;;;;;;8.67;55.33;99982.38;5348752;26;19970;-58
2024/04/22 10:13:36;;;;;;;;;;;;;;;8.26;54.94;99980.78;5322172;26;19933;-58
2024/04/22 10:16:06;;;;;;;;;;;;;;;7.84;56.94;99969.59;5326329;26;19934;-58
2024/04/22 10:18:34;;;;;;;;;;;;;;;8.68;54.74;99967.16;5327447;26;19930;-59
2024/04/22 10:21:04;;;;;;;;;;;;;;;10.75;51.40;99972.47;5320311;26;19926;-58
2024/04/22 10:23:33;;;;;;;;;;;;;;;10.04;49.54;99966.63;5328855;26;19950;-58
2024/04/22 10:26:03;;;;;;;;;;;;;;;9.37;49.52;99960.19;5327543;26;19933;-58
2024/04/22 10:28:30;;;;;;;;;;;;;;;8.85;51.56;99953.06;5329321;26;20019;-58
2024/04/22 10:31:02;;;;;;;;;;;;;;;8.20;54.13;99945.06;5326342;26;19925;-58
2024/04/22 10:33:32;;;;;;;;;;;;;;;9.28;52.28;99944.41;5348983;26;20423;-58
2024/04/22 10:36:00;;;;;;;;;;;;;;;9.41;50.48;99951.53;5325856;26;19992;-58
2024/04/22 10:38:29;;;;;;;;;;;;;;;7.68;52.62;99940.63;5325308;26;19932;-58
2024/04/22 10:40:56;;;;;;;;;;;;;;;8.00;53.39;99937.09;5326622;26;19933;-58
2024/04/22 10:43:26;;;;;;;;;;;;;;;8.98;52.12;99938.00;5329710;26;19926;-58
2024/04/22 10:45:54;;;;;;;;;;;;;;;10.17;48.02;99936.22;5289570;26;19927;-58
2024/04/22 10:48:26;;;;;;;;;;;;;;;8.87;48.92;99928.00;5325586;26;19926;-58
2024/04/22 10:50:55;;;;;;;;;;;;;;;9.25;50.18;99934.13;5327404;26;19926;-58
2024/04/22 10:53:24;;;;;;;;;;;;;;;10.41;47.92;99917.63;5325421;26;19925;-58
2024/04/22 10:55:52;;;;;;;;;;;;;;;9.84;47.67;99929.34;5324087;26;19926;-59
2024/04/22 10:58:21;;;;;;;;;;;;;;;10.61;45.81;99930.78;5323387;26;19974;-58
2024/04/22 11:00:49;;;;;;;;;;;;;;;10.91;43.39;99918.25;5326777;26;20674;-59
2024/04/22 11:03:19;;;;;;;;;;;;;;;10.82;43.50;99910.75;5323593;26;20432;-58
2024/04/22 11:05:49;;;;;;;;;;;;;;;11.35;42.38;99908.06;5322343;26;19934;-58
2024/04/22 11:08:20;;;;;;;;;;;;;;;10.48;43.52;99903.13;5318800;26;19926;-58
2024/04/22 11:10:48;;;;;;;;;;;;;;;10.07;43.06;99912.63;5318915;26;19926;-59
2024/04/22 11:13:17;;;;;;;;;;;;;;;10.07;44.72;99899.22;5318065;26;19938;-58
2024/04/22 11:15:45;;;;;;;;;;;;;;;9.78;46.94;99902.63;5324329;26;19932;-58
2024/04/22 11:18:14;;;;;;;;;;;;;;;9.58;48.22;99898.25;5325660;26;19945;-58
2024/04/22 11:20:41;;;;;;;;;;;;;;;8.57;51.08;99904.50;5323826;26;19926;-58
2024/04/22 11:23:14;;;;;;;;;;;;;;;8.30;53.27;99893.88;5325316;26;19933;-58
2024/04/22 11:25:44;;;;;;;;;;;;;;;8.28;58.07;99892.47;5324047;26;19926;-58
2024/04/22 11:28:11;;;;;;;;;;;;;;;8.23;58.71;99894.94;5306251;26;19934;-58
2024/04/22 11:30:41;;;;;;;;;;;;;;;8.76;55.34;99892.91;5326548;26;19937;-58
2024/04/22 11:33:08;;;;;;;;;;;;;;;8.84;54.29;99881.94;5318995;26;19933;-58
2024/04/22 11:35:38;;;;;;;;;;;;;;;8.92;52.50;99882.72;5325841;26;19926;-58
2024/04/22 11:38:15;;;;;;;;;;;;;;;9.40;50.81;99882.16;5318259;26;19962;-58
2024/04/22 11:40:45;;;;;;;;;;;;;;;10.72;47.17;99876.41;5314018;26;19933;-59
2024/04/22 11:43:12;;;;;;;;;;;;;;;11.49;45.22;99876.47;5320125;26;20285;-58
2024/04/22 11:45:44;;;;;;;;;;;;;;;11.28;44.89;99869.78;5320192;26;19941;-59
2024/04/22 11:48:11;;;;;;;;;;;;;;;10.77;44.97;99868.50;5316882;26;19944;-58
2024/04/22 11:50:41;;;;;;;;;;;;;;;11.55;44.42;99858.63;5324150;26;19925;-58
2024/04/22 11:53:09;;;;;;;;;;;;;;;11.79;42.55;99857.56;5321936;26;20260;-58
2024/04/22 11:55:43;;;;;;;;;;;;;;;11.38;43.94;99853.13;5323504;26;19933;-58
2024/04/22 11:58:10;;;;;;;;;;;;;;;10.26;44.42;99851.00;5321226;26;19945;-60
2024/04/22 12:00:40;;;;;;;;;;;;;;;10.06;45.05;99857.44;5325968;26;21533;-58
2024/04/22 12:03:07;;;;;;;;;;;;;;;9.22;51.86;99867.69;5324803;26;19942;-59
2024/04/22 12:05:40;;;;;;;;;;;;;;;9.27;53.90;99865.19;5341908;26;19970;-59
2024/04/22 12:08:07;;;;;;;;;;;;;;;8.69;54.55;99854.69;5325361;26;19926;-58
2024/04/22 12:10:37;;;;;;;;;;;;;;;8.76;56.28;99857.31;5325345;26;20364;-57
2024/04/22 12:13:07;;;;;;;;;;;;;;;9.44;54.77;99851.28;5324658;26;19926;-59
2024/04/22 12:15:37;;;;;;;;;;;;;;;9.52;53.11;99850.97;5317823;26;19961;-58
2024/04/22 12:18:04;;;;;;;;;;;;;;;9.69;51.79;99846.69;5353226;26;19934;-61
2024/04/22 12:20:34;;;;;;;;;;;;;;;9.78;48.88;99838.38;5318681;26;19926;-58
2024/04/22 12:23:02;;;;;;;;;;;;;;;10.76;46.73;99832.84;5323040;26;19934;-58
2024/04/22 12:25:32;;;;;;;;;;;;;;;10.91;46.26;99828.94;5319307;26;19977;-58
2024/04/22 12:27:59;;;;;;;;;;;;;;;11.03;45.45;99827.06;5325394;26;19930;-58
2024/04/22 12:30:33;;;;;;;;;;;;;;;11.22;44.72;99822.44;5323023;26;19926;-58
2024/04/22 12:33:01;;;;;;;;;;;;;;;11.25;44.66;99813.91;5299476;26;19973;-57
2024/04/22 12:35:31;;;;;;;;;;;;;;;11.77;45.09;99814.00;5321851;26;20472;-58
2024/04/22 12:37:58;;;;;;;;;;;;;;;12.00;42.66;99810.47;5322576;26;19934;-58
2024/04/22 12:40:28;;;;;;;;;;;;;;;11.71;41.44;99809.59;5317073;26;19929;-58
2024/04/22 12:42:55;;;;;;;;;;;;;;;12.50;40.56;99800.97;5319374;26;19930;-58
2024/04/22 12:45:25;;;;;;;;;;;;;;;12.39;39.43;99794.59;5325954;26;19933;-58
2024/04/22 12:50:48;;;;;;;;;;;;;;;13.42;39.89;99790.94;5321890;26;19938;-58
2024/04/22 12:53:18;;;;;;;;;;;;;;;12.12;38.62;99783.59;5325573;26;20636;-57
2024/04/22 12:55:48;;;;;;;;;;;;;;;11.94;39.24;99786.47;5321072;26;19926;-57
2024/04/22 12:58:19;;;;;;;;;;;;;;;11.00;37.67;99787.28;5318639;26;19925;-58